sensor_id;sensor_type;location;lat;lon;timestamp;P1;durP1;ratioP1;P2;durP2;ratioP2
7667;SDS011;3876;42.204;24.686;2023-11-22T00:00:58;3.07;;;2.77;;
7667;SDS011;3876;42.204;24.686;2023-11-22T00:03:25;17.20;;;2.90;;
7667;SDS011;3876;42.204;24.686;2023-11-22T00:05:52;2.47;;;1.67;;
7667;SDS011;3876;42.204;24.686;2023-11-22T00:08:18;2.33;;;2.13;;
7667;SDS011;3876;42.204;24.686;2023-11-22T00:10:45;6.80;;;2.70;;
7667;SDS011;3876;42.204;24.686;2023-11-22T00:13:13;2.40;;;2.30;;
7667;SDS011;3876;42.204;24.686;2023-11-22T00:15:40;3.63;;;2.50;;
7667;SDS011;3876;42.204;24.686;2023-11-22T00:18:07;1.70;;;1.63;;
7667;SDS011;3876;42.204;24.686;2023-11-22T00:20:33;3.93;;;2.73;;
7667;SDS011;3876;42.204;24.686;2023-11-22T00:23:01;3.03;;;2.23;;
7667;SDS011;3876;42.204;24.686;2023-11-22T00:25:29;1.87;;;1.87;;
7667;SDS011;3876;42.204;24.686;2023-11-22T00:27:56;1.90;;;1.80;;
7667;SDS011;3876;42.204;24.686;2023-11-22T00:30:24;1.80;;;1.70;;
7667;SDS011;3876;42.204;24.686;2023-11-22T00:32:50;2.60;;;2.47;;
7667;SDS011;3876;42.204;24.686;2023-11-22T00:35:17;1.50;;;1.50;;
7667;SDS011;3876;42.204;24.686;2023-11-22T00:37:44;1.97;;;1.87;;
7667;SDS011;3876;42.204;24.686;2023-11-22T00:40:11;2.00;;;1.90;;
7667;SDS011;3876;42.204;24.686;2023-11-22T00:42:38;2.73;;;1.87;;
7667;SDS011;3876;42.204;24.686;2023-11-22T00:45:07;4.87;;;2.33;;
7667;SDS011;3876;42.204;24.686;2023-11-22T00:47:36;4.17;;;2.23;;
7667;SDS011;3876;42.204;24.686;2023-11-22T00:50:04;1.83;;;1.83;;
7667;SDS011;3876;42.204;24.686;2023-11-22T00:52:32;4.63;;;1.67;;
7667;SDS011;3876;42.204;24.686;2023-11-22T00:54:58;1.57;;;1.47;;
7667;SDS011;3876;42.204;24.686;2023-11-22T00:57:25;2.07;;;1.97;;
7667;SDS011;3876;42.204;24.686;2023-11-22T00:59:52;2.53;;;1.83;;
7667;SDS011;3876;42.204;24.686;2023-11-22T01:02:19;3.07;;;2.97;;
7667;SDS011;3876;42.204;24.686;2023-11-22T01:04:47;4.27;;;2.27;;
7667;SDS011;3876;42.204;24.686;2023-11-22T01:07:13;4.50;;;2.83;;
7667;SDS011;3876;42.204;24.686;2023-11-22T01:09:40;5.30;;;2.27;;
7667;SDS011;3876;42.204;24.686;2023-11-22T01:12:07;2.03;;;1.90;;
7667;SDS011;3876;42.204;24.686;2023-11-22T01:14:34;2.80;;;2.60;;
7667;SDS011;3876;42.204;24.686;2023-11-22T01:17:01;3.13;;;2.47;;
7667;SDS011;3876;42.204;24.686;2023-11-22T01:19:27;3.03;;;2.70;;
7667;SDS011;3876;42.204;24.686;2023-11-22T01:21:55;3.30;;;2.97;;
7667;SDS011;3876;42.204;24.686;2023-11-22T01:24:22;3.77;;;1.47;;
7667;SDS011;3876;42.204;24.686;2023-11-22T01:26:51;3.27;;;2.97;;
7667;SDS011;3876;42.204;24.686;2023-11-22T01:29:17;1.50;;;1.40;;
7667;SDS011;3876;42.204;24.686;2023-11-22T01:31:44;3.30;;;2.83;;
7667;SDS011;3876;42.204;24.686;2023-11-22T01:34:11;2.93;;;2.57;;
7667;SDS011;3876;42.204;24.686;2023-11-22T01:36:40;2.60;;;2.40;;
7667;SDS011;3876;42.204;24.686;2023-11-22T01:39:10;2.93;;;2.60;;
7667;SDS011;3876;42.204;24.686;2023-11-22T01:41:37;2.23;;;2.07;;
7667;SDS011;3876;42.204;24.686;2023-11-22T01:44:04;3.83;;;2.43;;
7667;SDS011;3876;42.204;24.686;2023-11-22T01:46:31;2.60;;;2.37;;
7667;SDS011;3876;42.204;24.686;2023-11-22T01:48:58;1.97;;;1.87;;
7667;SDS011;3876;42.204;24.686;2023-11-22T01:51:26;3.00;;;2.00;;
7667;SDS011;3876;42.204;24.686;2023-11-22T01:53:54;1.20;;;1.20;;
7667;SDS011;3876;42.204;24.686;2023-11-22T01:56:25;3.50;;;1.67;;
7667;SDS011;3876;42.204;24.686;2023-11-22T01:58:53;6.80;;;2.07;;
7667;SDS011;3876;42.204;24.686;2023-11-22T02:01:21;3.13;;;2.00;;
7667;SDS011;3876;42.204;24.686;2023-11-22T02:03:48;2.13;;;2.03;;
7667;SDS011;3876;42.204;24.686;2023-11-22T02:06:17;2.13;;;1.93;;
7667;SDS011;3876;42.204;24.686;2023-11-22T02:08:44;3.10;;;2.10;;
7667;SDS011;3876;42.204;24.686;2023-11-22T02:11:11;2.07;;;1.93;;
7667;SDS011;3876;42.204;24.686;2023-11-22T02:13:39;2.40;;;2.20;;
7667;SDS011;3876;42.204;24.686;2023-11-22T02:16:06;2.23;;;2.07;;
7667;SDS011;3876;42.204;24.686;2023-11-22T02:18:32;4.00;;;1.87;;
7667;SDS011;3876;42.204;24.686;2023-11-22T02:21:00;2.83;;;2.73;;
7667;SDS011;3876;42.204;24.686;2023-11-22T02:23:28;1.90;;;1.80;;
7667;SDS011;3876;42.204;24.686;2023-11-22T02:25:56;3.33;;;1.50;;
7667;SDS011;3876;42.204;24.686;2023-11-22T02:28:23;3.47;;;2.20;;
7667;SDS011;3876;42.204;24.686;2023-11-22T02:30:50;2.47;;;1.87;;
7667;SDS011;3876;42.204;24.686;2023-11-22T02:33:17;1.70;;;1.60;;
7667;SDS011;3876;42.204;24.686;2023-11-22T02:35:44;1.00;;;1.00;;
7667;SDS011;3876;42.204;24.686;2023-11-22T02:38:11;1.50;;;1.40;;
7667;SDS011;3876;42.204;24.686;2023-11-22T02:40:39;1.53;;;1.53;;
7667;SDS011;3876;42.204;24.686;2023-11-22T02:43:05;1.10;;;1.10;;
7667;SDS011;3876;42.204;24.686;2023-11-22T02:45:34;2.63;;;1.53;;
7667;SDS011;3876;42.204;24.686;2023-11-22T02:48:01;2.37;;;2.27;;
7667;SDS011;3876;42.204;24.686;2023-11-22T02:50:28;2.33;;;2.10;;
7667;SDS011;3876;42.204;24.686;2023-11-22T02:52:56;1.50;;;1.50;;
7667;SDS011;3876;42.204;24.686;2023-11-22T02:55:23;2.77;;;1.80;;
7667;SDS011;3876;42.204;24.686;2023-11-22T02:57:52;2.63;;;2.53;;
7667;SDS011;3876;42.204;24.686;2023-11-22T03:00:19;1.70;;;1.57;;
7667;SDS011;3876;42.204;24.686;2023-11-22T03:02:46;4.07;;;1.63;;
7667;SDS011;3876;42.204;24.686;2023-11-22T03:05:18;1.90;;;1.80;;
7667;SDS011;3876;42.204;24.686;2023-11-22T03:07:45;2.17;;;2.07;;
7667;SDS011;3876;42.204;24.686;2023-11-22T03:10:12;1.70;;;1.70;;
7667;SDS011;3876;42.204;24.686;2023-11-22T03:12:39;3.43;;;2.50;;
7667;SDS011;3876;42.204;24.686;2023-11-22T03:15:08;3.50;;;3.30;;
7667;SDS011;3876;42.204;24.686;2023-11-22T03:17:35;3.30;;;2.03;;
7667;SDS011;3876;42.204;24.686;2023-11-22T03:20:04;2.33;;;2.13;;
7667;SDS011;3876;42.204;24.686;2023-11-22T03:22:34;2.07;;;1.97;;
7667;SDS011;3876;42.204;24.686;2023-11-22T03:25:01;2.37;;;2.27;;
7667;SDS011;3876;42.204;24.686;2023-11-22T03:27:28;3.00;;;1.80;;
7667;SDS011;3876;42.204;24.686;2023-11-22T03:29:55;2.50;;;2.07;;
7667;SDS011;3876;42.204;24.686;2023-11-22T03:32:23;2.77;;;2.57;;
7667;SDS011;3876;42.204;24.686;2023-11-22T03:34:50;1.50;;;1.50;;
7667;SDS011;3876;42.204;24.686;2023-11-22T03:37:17;3.20;;;2.93;;
7667;SDS011;3876;42.204;24.686;2023-11-22T03:39:44;2.10;;;2.00;;
7667;SDS011;3876;42.204;24.686;2023-11-22T03:42:13;3.60;;;1.87;;
7667;SDS011;3876;42.204;24.686;2023-11-22T03:44:41;10.40;;;2.03;;
7667;SDS011;3876;42.204;24.686;2023-11-22T03:47:09;2.00;;;1.93;;
7667;SDS011;3876;42.204;24.686;2023-11-22T03:49:38;2.70;;;2.50;;
7667;SDS011;3876;42.204;24.686;2023-11-22T03:52:05;8.47;;;3.80;;
7667;SDS011;3876;42.204;24.686;2023-11-22T03:54:33;5.97;;;2.73;;
7667;SDS011;3876;42.204;24.686;2023-11-22T03:57:00;7.50;;;2.73;;
7667;SDS011;3876;42.204;24.686;2023-11-22T03:59:27;5.63;;;2.37;;
7667;SDS011;3876;42.204;24.686;2023-11-22T04:01:53;2.73;;;1.90;;
7667;SDS011;3876;42.204;24.686;2023-11-22T04:04:19;3.37;;;2.33;;
7667;SDS011;3876;42.204;24.686;2023-11-22T04:06:47;3.10;;;2.70;;
7667;SDS011;3876;42.204;24.686;2023-11-22T04:09:15;2.47;;;2.37;;
7667;SDS011;3876;42.204;24.686;2023-11-22T04:11:42;2.47;;;2.33;;
7667;SDS011;3876;42.204;24.686;2023-11-22T04:14:09;2.30;;;2.20;;
7667;SDS011;3876;42.204;24.686;2023-11-22T04:16:36;3.20;;;2.97;;
7667;SDS011;3876;42.204;24.686;2023-11-22T04:19:03;3.00;;;2.70;;
7667;SDS011;3876;42.204;24.686;2023-11-22T04:21:30;3.80;;;3.60;;
7667;SDS011;3876;42.204;24.686;2023-11-22T04:23:58;4.40;;;2.07;;
7667;SDS011;3876;42.204;24.686;2023-11-22T04:26:24;2.47;;;2.23;;
7667;SDS011;3876;42.204;24.686;2023-11-22T04:28:51;2.43;;;2.17;;
7667;SDS011;3876;42.204;24.686;2023-11-22T04:31:18;1.80;;;1.70;;
7667;SDS011;3876;42.204;24.686;2023-11-22T04:33:45;2.60;;;2.40;;
7667;SDS011;3876;42.204;24.686;2023-11-22T04:36:11;2.10;;;2.00;;
7667;SDS011;3876;42.204;24.686;2023-11-22T04:38:38;13.73;;;2.60;;
7667;SDS011;3876;42.204;24.686;2023-11-22T04:41:06;3.13;;;2.10;;
7667;SDS011;3876;42.204;24.686;2023-11-22T04:43:33;2.27;;;2.17;;
7667;SDS011;3876;42.204;24.686;2023-11-22T04:46:00;4.77;;;3.40;;
7667;SDS011;3876;42.204;24.686;2023-11-22T04:48:26;3.33;;;3.10;;
7667;SDS011;3876;42.204;24.686;2023-11-22T04:50:53;2.40;;;2.20;;
7667;SDS011;3876;42.204;24.686;2023-11-22T04:53:20;2.40;;;2.13;;
7667;SDS011;3876;42.204;24.686;2023-11-22T04:55:47;2.17;;;2.07;;
7667;SDS011;3876;42.204;24.686;2023-11-22T04:58:15;2.40;;;2.20;;
7667;SDS011;3876;42.204;24.686;2023-11-22T05:00:42;2.33;;;2.23;;
7667;SDS011;3876;42.204;24.686;2023-11-22T05:03:10;8.67;;;3.53;;
7667;SDS011;3876;42.204;24.686;2023-11-22T05:05:38;2.40;;;2.20;;
7667;SDS011;3876;42.204;24.686;2023-11-22T05:08:04;2.23;;;2.13;;
7667;SDS011;3876;42.204;24.686;2023-11-22T05:10:31;4.00;;;1.83;;
7667;SDS011;3876;42.204;24.686;2023-11-22T05:12:58;3.90;;;3.20;;
7667;SDS011;3876;42.204;24.686;2023-11-22T05:15:27;2.00;;;1.90;;
7667;SDS011;3876;42.204;24.686;2023-11-22T05:17:54;1.30;;;1.30;;
7667;SDS011;3876;42.204;24.686;2023-11-22T05:20:21;2.70;;;2.60;;
7667;SDS011;3876;42.204;24.686;2023-11-22T05:22:48;3.63;;;1.97;;
7667;SDS011;3876;42.204;24.686;2023-11-22T05:25:14;1.20;;;1.20;;
7667;SDS011;3876;42.204;24.686;2023-11-22T05:27:41;4.03;;;1.70;;
7667;SDS011;3876;42.204;24.686;2023-11-22T05:30:08;3.03;;;1.60;;
7667;SDS011;3876;42.204;24.686;2023-11-22T05:32:38;2.23;;;2.13;;
7667;SDS011;3876;42.204;24.686;2023-11-22T05:35:05;8.50;;;1.77;;
7667;SDS011;3876;42.204;24.686;2023-11-22T05:37:35;0.97;;;0.97;;
7667;SDS011;3876;42.204;24.686;2023-11-22T05:40:03;1.77;;;1.20;;
7667;SDS011;3876;42.204;24.686;2023-11-22T05:42:30;1.43;;;1.43;;
7667;SDS011;3876;42.204;24.686;2023-11-22T05:44:57;1.40;;;1.33;;
7667;SDS011;3876;42.204;24.686;2023-11-22T05:47:23;1.23;;;1.23;;
7667;SDS011;3876;42.204;24.686;2023-11-22T05:49:51;1.00;;;1.00;;
7667;SDS011;3876;42.204;24.686;2023-11-22T05:52:18;1.83;;;1.77;;
7667;SDS011;3876;42.204;24.686;2023-11-22T05:54:47;1.23;;;1.23;;
7667;SDS011;3876;42.204;24.686;2023-11-22T05:57:14;1.20;;;1.20;;
7667;SDS011;3876;42.204;24.686;2023-11-22T05:59:42;1.40;;;1.40;;
7667;SDS011;3876;42.204;24.686;2023-11-22T06:02:08;1.23;;;1.23;;
7667;SDS011;3876;42.204;24.686;2023-11-22T06:04:35;1.30;;;1.30;;
7667;SDS011;3876;42.204;24.686;2023-11-22T06:07:03;3.43;;;2.03;;
7667;SDS011;3876;42.204;24.686;2023-11-22T06:09:31;1.40;;;1.30;;
7667;SDS011;3876;42.204;24.686;2023-11-22T06:11:59;1.83;;;1.23;;
7667;SDS011;3876;42.204;24.686;2023-11-22T06:14:25;1.27;;;1.27;;
7667;SDS011;3876;42.204;24.686;2023-11-22T06:16:52;1.43;;;1.43;;
7667;SDS011;3876;42.204;24.686;2023-11-22T06:19:19;1.57;;;1.57;;
7667;SDS011;3876;42.204;24.686;2023-11-22T06:21:46;2.43;;;2.10;;
7667;SDS011;3876;42.204;24.686;2023-11-22T06:24:14;2.87;;;1.40;;
7667;SDS011;3876;42.204;24.686;2023-11-22T06:26:42;1.97;;;1.87;;
7667;SDS011;3876;42.204;24.686;2023-11-22T06:29:11;2.10;;;1.97;;
7667;SDS011;3876;42.204;24.686;2023-11-22T06:31:37;1.23;;;1.17;;
7667;SDS011;3876;42.204;24.686;2023-11-22T06:34:05;2.43;;;2.33;;
7667;SDS011;3876;42.204;24.686;2023-11-22T06:36:32;1.33;;;1.33;;
7667;SDS011;3876;42.204;24.686;2023-11-22T06:38:58;1.37;;;1.37;;
7667;SDS011;3876;42.204;24.686;2023-11-22T06:41:27;2.23;;;2.03;;
7667;SDS011;3876;42.204;24.686;2023-11-22T06:43:54;3.30;;;2.10;;
7667;SDS011;3876;42.204;24.686;2023-11-22T06:46:20;1.40;;;1.40;;
7667;SDS011;3876;42.204;24.686;2023-11-22T06:48:48;1.87;;;1.87;;
7667;SDS011;3876;42.204;24.686;2023-11-22T06:51:14;4.80;;;2.70;;
7667;SDS011;3876;42.204;24.686;2023-11-22T06:53:43;6.17;;;2.87;;
7667;SDS011;3876;42.204;24.686;2023-11-22T06:56:10;5.03;;;2.03;;
7667;SDS011;3876;42.204;24.686;2023-11-22T06:58:38;2.40;;;2.20;;
7667;SDS011;3876;42.204;24.686;2023-11-22T07:01:05;2.93;;;2.43;;
7667;SDS011;3876;42.204;24.686;2023-11-22T07:03:32;2.77;;;2.13;;
7667;SDS011;3876;42.204;24.686;2023-11-22T07:05:59;3.43;;;3.23;;
7667;SDS011;3876;42.204;24.686;2023-11-22T07:08:25;5.40;;;2.73;;
7667;SDS011;3876;42.204;24.686;2023-11-22T07:10:53;2.57;;;2.37;;
7667;SDS011;3876;42.204;24.686;2023-11-22T07:13:21;2.83;;;2.63;;
7667;SDS011;3876;42.204;24.686;2023-11-22T07:15:50;4.17;;;2.67;;
7667;SDS011;3876;42.204;24.686;2023-11-22T07:18:19;2.83;;;2.03;;
7667;SDS011;3876;42.204;24.686;2023-11-22T07:20:49;2.30;;;2.20;;
7667;SDS011;3876;42.204;24.686;2023-11-22T07:23:18;2.43;;;2.23;;
7667;SDS011;3876;42.204;24.686;2023-11-22T07:25:46;3.43;;;3.13;;
7667;SDS011;3876;42.204;24.686;2023-11-22T07:28:13;3.00;;;1.83;;
7667;SDS011;3876;42.204;24.686;2023-11-22T07:30:39;2.87;;;2.67;;
7667;SDS011;3876;42.204;24.686;2023-11-22T07:33:08;2.30;;;2.20;;
7667;SDS011;3876;42.204;24.686;2023-11-22T07:35:36;3.13;;;2.93;;
7667;SDS011;3876;42.204;24.686;2023-11-22T07:38:04;2.70;;;2.50;;
7667;SDS011;3876;42.204;24.686;2023-11-22T07:40:33;4.73;;;4.40;;
7667;SDS011;3876;42.204;24.686;2023-11-22T07:43:00;3.77;;;1.93;;
7667;SDS011;3876;42.204;24.686;2023-11-22T07:45:28;2.33;;;2.23;;
7667;SDS011;3876;42.204;24.686;2023-11-22T07:47:54;3.17;;;2.47;;
7667;SDS011;3876;42.204;24.686;2023-11-22T07:50:25;1.87;;;1.77;;
7667;SDS011;3876;42.204;24.686;2023-11-22T07:52:52;4.37;;;2.50;;
7667;SDS011;3876;42.204;24.686;2023-11-22T07:55:19;2.40;;;1.97;;
7667;SDS011;3876;42.204;24.686;2023-11-22T07:57:47;2.40;;;2.27;;
7667;SDS011;3876;42.204;24.686;2023-11-22T08:00:15;2.70;;;2.60;;
7667;SDS011;3876;42.204;24.686;2023-11-22T08:02:44;2.40;;;2.20;;
7667;SDS011;3876;42.204;24.686;2023-11-22T08:05:11;2.07;;;1.97;;
7667;SDS011;3876;42.204;24.686;2023-11-22T08:07:41;2.87;;;2.67;;
7667;SDS011;3876;42.204;24.686;2023-11-22T08:10:11;1.87;;;1.87;;
7667;SDS011;3876;42.204;24.686;2023-11-22T08:12:43;2.53;;;2.43;;
7667;SDS011;3876;42.204;24.686;2023-11-22T08:15:11;4.23;;;2.33;;
7667;SDS011;3876;42.204;24.686;2023-11-22T08:17:38;1.87;;;1.87;;
7667;SDS011;3876;42.204;24.686;2023-11-22T08:20:06;5.23;;;1.93;;
7667;SDS011;3876;42.204;24.686;2023-11-22T08:22:37;3.23;;;2.73;;
7667;SDS011;3876;42.204;24.686;2023-11-22T08:25:06;2.87;;;2.67;;
7667;SDS011;3876;42.204;24.686;2023-11-22T08:27:37;3.17;;;2.87;;
7667;SDS011;3876;42.204;24.686;2023-11-22T08:30:04;3.17;;;2.87;;
7667;SDS011;3876;42.204;24.686;2023-11-22T08:32:34;2.37;;;2.27;;
7667;SDS011;3876;42.204;24.686;2023-11-22T08:35:01;2.00;;;1.90;;
7667;SDS011;3876;42.204;24.686;2023-11-22T08:37:32;2.30;;;2.20;;
7667;SDS011;3876;42.204;24.686;2023-11-22T08:40:00;5.20;;;3.03;;
7667;SDS011;3876;42.204;24.686;2023-11-22T08:42:28;3.20;;;2.77;;
7667;SDS011;3876;42.204;24.686;2023-11-22T08:44:55;3.17;;;3.00;;
7667;SDS011;3876;42.204;24.686;2023-11-22T08:47:22;5.10;;;2.53;;
7667;SDS011;3876;42.204;24.686;2023-11-22T08:49:48;5.00;;;3.57;;
7667;SDS011;3876;42.204;24.686;2023-11-22T08:52:15;2.73;;;2.50;;
7667;SDS011;3876;42.204;24.686;2023-11-22T08:54:42;2.43;;;2.20;;
7667;SDS011;3876;42.204;24.686;2023-11-22T08:57:08;3.30;;;2.93;;
7667;SDS011;3876;42.204;24.686;2023-11-22T08:59:38;2.40;;;2.30;;
7667;SDS011;3876;42.204;24.686;2023-11-22T09:02:05;2.60;;;2.37;;
7667;SDS011;3876;42.204;24.686;2023-11-22T09:04:33;3.33;;;3.03;;
7667;SDS011;3876;42.204;24.686;2023-11-22T09:07:00;2.90;;;2.60;;
7667;SDS011;3876;42.204;24.686;2023-11-22T09:09:27;3.23;;;2.93;;
7667;SDS011;3876;42.204;24.686;2023-11-22T09:11:56;7.23;;;4.00;;
7667;SDS011;3876;42.204;24.686;2023-11-22T09:14:23;4.53;;;2.53;;
7667;SDS011;3876;42.204;24.686;2023-11-22T09:16:52;5.90;;;3.83;;
7667;SDS011;3876;42.204;24.686;2023-11-22T09:19:19;4.97;;;3.67;;
7667;SDS011;3876;42.204;24.686;2023-11-22T09:21:46;7.43;;;3.80;;
7667;SDS011;3876;42.204;24.686;2023-11-22T09:24:13;9.37;;;4.80;;
7667;SDS011;3876;42.204;24.686;2023-11-22T09:26:40;3.50;;;3.37;;
7667;SDS011;3876;42.204;24.686;2023-11-22T09:29:06;5.23;;;4.73;;
7667;SDS011;3876;42.204;24.686;2023-11-22T09:31:34;5.03;;;3.30;;
7667;SDS011;3876;42.204;24.686;2023-11-22T09:34:03;7.37;;;4.17;;
7667;SDS011;3876;42.204;24.686;2023-11-22T09:36:30;5.93;;;2.63;;
7667;SDS011;3876;42.204;24.686;2023-11-22T09:38:59;3.67;;;3.30;;
7667;SDS011;3876;42.204;24.686;2023-11-22T09:41:28;5.13;;;3.70;;
7667;SDS011;3876;42.204;24.686;2023-11-22T09:43:55;2.30;;;2.10;;
7667;SDS011;3876;42.204;24.686;2023-11-22T09:46:23;4.67;;;4.27;;
7667;SDS011;3876;42.204;24.686;2023-11-22T09:48:50;2.27;;;2.17;;
7667;SDS011;3876;42.204;24.686;2023-11-22T09:51:24;2.80;;;2.60;;
7667;SDS011;3876;42.204;24.686;2023-11-22T09:53:55;3.13;;;3.03;;
7667;SDS011;3876;42.204;24.686;2023-11-22T09:56:24;2.77;;;2.57;;
7667;SDS011;3876;42.204;24.686;2023-11-22T09:58:52;4.17;;;3.87;;
7667;SDS011;3876;42.204;24.686;2023-11-22T10:01:21;2.83;;;2.70;;
7667;SDS011;3876;42.204;24.686;2023-11-22T10:03:48;2.83;;;2.73;;
7667;SDS011;3876;42.204;24.686;2023-11-22T10:06:16;3.53;;;2.03;;
7667;SDS011;3876;42.204;24.686;2023-11-22T10:08:44;2.57;;;2.10;;
7667;SDS011;3876;42.204;24.686;2023-11-22T10:11:14;2.60;;;2.50;;
7667;SDS011;3876;42.204;24.686;2023-11-22T10:13:42;4.00;;;1.97;;
7667;SDS011;3876;42.204;24.686;2023-11-22T10:16:11;4.73;;;1.77;;
7667;SDS011;3876;42.204;24.686;2023-11-22T10:18:41;3.33;;;2.00;;
7667;SDS011;3876;42.204;24.686;2023-11-22T10:21:18;3.40;;;2.17;;
7667;SDS011;3876;42.204;24.686;2023-11-22T10:23:50;3.67;;;3.37;;
7667;SDS011;3876;42.204;24.686;2023-11-22T10:26:19;3.27;;;2.10;;
7667;SDS011;3876;42.204;24.686;2023-11-22T10:28:46;2.73;;;2.40;;
7667;SDS011;3876;42.204;24.686;2023-11-22T10:31:16;2.60;;;2.43;;
7667;SDS011;3876;42.204;24.686;2023-11-22T10:33:43;2.63;;;2.53;;
7667;SDS011;3876;42.204;24.686;2023-11-22T10:36:09;7.97;;;2.53;;
7667;SDS011;3876;42.204;24.686;2023-11-22T10:38:37;2.13;;;2.03;;
7667;SDS011;3876;42.204;24.686;2023-11-22T10:41:08;2.53;;;2.03;;
7667;SDS011;3876;42.204;24.686;2023-11-22T10:43:45;2.50;;;2.30;;
7667;SDS011;3876;42.204;24.686;2023-11-22T10:46:12;2.37;;;2.23;;
7667;SDS011;3876;42.204;24.686;2023-11-22T10:48:39;2.73;;;2.60;;
7667;SDS011;3876;42.204;24.686;2023-11-22T10:51:06;2.60;;;2.37;;
7667;SDS011;3876;42.204;24.686;2023-11-22T10:53:40;2.70;;;2.50;;
7667;SDS011;3876;42.204;24.686;2023-11-22T10:56:15;1.80;;;1.70;;
7667;SDS011;3876;42.204;24.686;2023-11-22T10:58:46;4.27;;;2.43;;
7667;SDS011;3876;42.204;24.686;2023-11-22T11:01:15;4.30;;;2.17;;
7667;SDS011;3876;42.204;24.686;2023-11-22T11:03:45;2.73;;;2.13;;
7667;SDS011;3876;42.204;24.686;2023-11-22T11:06:16;3.07;;;2.07;;
7667;SDS011;3876;42.204;24.686;2023-11-22T11:08:48;4.23;;;2.87;;
7667;SDS011;3876;42.204;24.686;2023-11-22T11:11:16;3.20;;;1.77;;
7667;SDS011;3876;42.204;24.686;2023-11-22T11:13:44;2.90;;;2.70;;
7667;SDS011;3876;42.204;24.686;2023-11-22T11:16:13;6.13;;;3.57;;
7667;SDS011;3876;42.204;24.686;2023-11-22T11:18:41;4.80;;;2.83;;
7667;SDS011;3876;42.204;24.686;2023-11-22T11:21:08;2.90;;;2.70;;
7667;SDS011;3876;42.204;24.686;2023-11-22T11:23:38;2.33;;;2.20;;
7667;SDS011;3876;42.204;24.686;2023-11-22T11:26:09;3.43;;;3.23;;
7667;SDS011;3876;42.204;24.686;2023-11-22T11:28:44;2.40;;;2.20;;
7667;SDS011;3876;42.204;24.686;2023-11-22T11:31:12;3.10;;;3.00;;
7667;SDS011;3876;42.204;24.686;2023-11-22T11:36:22;2.70;;;2.47;;
7667;SDS011;3876;42.204;24.686;2023-11-22T11:38:51;3.07;;;2.87;;
7667;SDS011;3876;42.204;24.686;2023-11-22T11:41:18;4.00;;;2.73;;
7667;SDS011;3876;42.204;24.686;2023-11-22T11:43:47;4.50;;;3.17;;
7667;SDS011;3876;42.204;24.686;2023-11-22T11:46:15;8.63;;;4.30;;
7667;SDS011;3876;42.204;24.686;2023-11-22T11:48:44;2.73;;;2.53;;
7667;SDS011;3876;42.204;24.686;2023-11-22T11:51:13;3.13;;;2.93;;
7667;SDS011;3876;42.204;24.686;2023-11-22T11:53:41;3.67;;;2.00;;
7667;SDS011;3876;42.204;24.686;2023-11-22T11:56:08;2.97;;;2.50;;
7667;SDS011;3876;42.204;24.686;2023-11-22T11:58:36;12.03;;;3.00;;
7667;SDS011;3876;42.204;24.686;2023-11-22T12:01:05;1.97;;;1.87;;
7667;SDS011;3876;42.204;24.686;2023-11-22T12:03:32;2.33;;;2.13;;
7667;SDS011;3876;42.204;24.686;2023-11-22T12:05:59;1.93;;;1.83;;
7667;SDS011;3876;42.204;24.686;2023-11-22T12:08:26;2.93;;;2.70;;
7667;SDS011;3876;42.204;24.686;2023-11-22T12:10:55;2.67;;;2.47;;
7667;SDS011;3876;42.204;24.686;2023-11-22T12:13:24;3.77;;;2.47;;
7667;SDS011;3876;42.204;24.686;2023-11-22T12:15:51;2.77;;;2.57;;
7667;SDS011;3876;42.204;24.686;2023-11-22T12:18:21;4.47;;;2.77;;
7667;SDS011;3876;42.204;24.686;2023-11-22T12:20:54;6.73;;;2.93;;
7667;SDS011;3876;42.204;24.686;2023-11-22T12:23:22;5.13;;;2.80;;
7667;SDS011;3876;42.204;24.686;2023-11-22T12:25:53;2.53;;;2.43;;
7667;SDS011;3876;42.204;24.686;2023-11-22T12:28:21;5.30;;;2.27;;
7667;SDS011;3876;42.204;24.686;2023-11-22T12:30:49;3.50;;;2.60;;
7667;SDS011;3876;42.204;24.686;2023-11-22T12:33:16;4.47;;;2.67;;
7667;SDS011;3876;42.204;24.686;2023-11-22T12:35:46;2.87;;;2.73;;
7667;SDS011;3876;42.204;24.686;2023-11-22T12:38:14;3.43;;;2.97;;
7667;SDS011;3876;42.204;24.686;2023-11-22T12:40:43;7.47;;;4.47;;
7667;SDS011;3876;42.204;24.686;2023-11-22T12:43:12;3.43;;;3.13;;
7667;SDS011;3876;42.204;24.686;2023-11-22T12:45:40;3.83;;;3.57;;
7667;SDS011;3876;42.204;24.686;2023-11-22T12:48:20;4.67;;;4.30;;
7667;SDS011;3876;42.204;24.686;2023-11-22T12:50:51;4.27;;;3.90;;
7667;SDS011;3876;42.204;24.686;2023-11-22T12:53:18;4.10;;;2.57;;
7667;SDS011;3876;42.204;24.686;2023-11-22T12:55:47;4.23;;;3.93;;
7667;SDS011;3876;42.204;24.686;2023-11-22T12:58:15;3.60;;;3.20;;
7667;SDS011;3876;42.204;24.686;2023-11-22T13:00:43;3.93;;;3.73;;
7667;SDS011;3876;42.204;24.686;2023-11-22T13:03:11;6.13;;;2.90;;
7667;SDS011;3876;42.204;24.686;2023-11-22T13:05:38;3.80;;;3.57;;
7667;SDS011;3876;42.204;24.686;2023-11-22T13:08:09;2.87;;;2.43;;
7667;SDS011;3876;42.204;24.686;2023-11-22T13:10:38;6.60;;;3.10;;
7667;SDS011;3876;42.204;24.686;2023-11-22T13:13:05;7.07;;;5.63;;
7667;SDS011;3876;42.204;24.686;2023-11-22T13:15:34;20.07;;;11.67;;
7667;SDS011;3876;42.204;24.686;2023-11-22T13:18:01;12.73;;;8.43;;
7667;SDS011;3876;42.204;24.686;2023-11-22T13:20:27;5.67;;;5.23;;
7667;SDS011;3876;42.204;24.686;2023-11-22T13:22:54;6.20;;;5.13;;
7667;SDS011;3876;42.204;24.686;2023-11-22T13:25:24;3.30;;;3.03;;
7667;SDS011;3876;42.204;24.686;2023-11-22T13:27:51;3.80;;;3.33;;
7667;SDS011;3876;42.204;24.686;2023-11-22T13:30:18;4.77;;;3.40;;
7667;SDS011;3876;42.204;24.686;2023-11-22T13:32:47;3.23;;;3.03;;
7667;SDS011;3876;42.204;24.686;2023-11-22T13:35:14;3.73;;;3.43;;
7667;SDS011;3876;42.204;24.686;2023-11-22T13:37:42;3.27;;;3.07;;
7667;SDS011;3876;42.204;24.686;2023-11-22T13:40:10;4.63;;;2.67;;
7667;SDS011;3876;42.204;24.686;2023-11-22T13:42:43;4.03;;;3.60;;
7667;SDS011;3876;42.204;24.686;2023-11-22T13:45:10;3.67;;;3.47;;
7667;SDS011;3876;42.204;24.686;2023-11-22T13:47:41;4.70;;;4.20;;
7667;SDS011;3876;42.204;24.686;2023-11-22T13:50:09;4.00;;;3.33;;
7667;SDS011;3876;42.204;24.686;2023-11-22T13:52:36;5.53;;;4.30;;
7667;SDS011;3876;42.204;24.686;2023-11-22T13:55:04;6.27;;;4.77;;
7667;SDS011;3876;42.204;24.686;2023-11-22T13:57:35;3.13;;;2.90;;
7667;SDS011;3876;42.204;24.686;2023-11-22T14:00:03;3.33;;;3.13;;
7667;SDS011;3876;42.204;24.686;2023-11-22T14:02:34;5.00;;;3.73;;
7667;SDS011;3876;42.204;24.686;2023-11-22T14:05:01;3.70;;;3.37;;
7667;SDS011;3876;42.204;24.686;2023-11-22T14:07:32;3.67;;;3.37;;
7667;SDS011;3876;42.204;24.686;2023-11-22T14:09:59;7.53;;;3.67;;
7667;SDS011;3876;42.204;24.686;2023-11-22T14:12:28;3.23;;;2.87;;
7667;SDS011;3876;42.204;24.686;2023-11-22T14:14:55;3.70;;;3.40;;
7667;SDS011;3876;42.204;24.686;2023-11-22T14:17:23;5.10;;;3.83;;
7667;SDS011;3876;42.204;24.686;2023-11-22T14:19:50;4.43;;;3.23;;
7667;SDS011;3876;42.204;24.686;2023-11-22T14:22:17;6.43;;;2.33;;
7667;SDS011;3876;42.204;24.686;2023-11-22T14:24:46;4.67;;;3.40;;
7667;SDS011;3876;42.204;24.686;2023-11-22T14:27:12;6.00;;;4.70;;
7667;SDS011;3876;42.204;24.686;2023-11-22T14:29:39;3.80;;;3.50;;
7667;SDS011;3876;42.204;24.686;2023-11-22T14:32:07;5.53;;;4.43;;
7667;SDS011;3876;42.204;24.686;2023-11-22T14:34:35;6.37;;;3.03;;
7667;SDS011;3876;42.204;24.686;2023-11-22T14:37:03;3.93;;;3.70;;
7667;SDS011;3876;42.204;24.686;2023-11-22T14:39:31;4.80;;;4.40;;
7667;SDS011;3876;42.204;24.686;2023-11-22T14:41:59;4.73;;;4.33;;
7667;SDS011;3876;42.204;24.686;2023-11-22T14:44:26;10.17;;;5.10;;
7667;SDS011;3876;42.204;24.686;2023-11-22T14:46:52;8.33;;;5.13;;
7667;SDS011;3876;42.204;24.686;2023-11-22T14:49:19;8.10;;;5.50;;
7667;SDS011;3876;42.204;24.686;2023-11-22T14:51:48;5.33;;;5.03;;
7667;SDS011;3876;42.204;24.686;2023-11-22T14:54:15;8.27;;;5.93;;
7667;SDS011;3876;42.204;24.686;2023-11-22T14:56:42;7.73;;;5.13;;
7667;SDS011;3876;42.204;24.686;2023-11-22T14:59:10;7.87;;;4.83;;
7667;SDS011;3876;42.204;24.686;2023-11-22T15:01:38;7.47;;;5.43;;
7667;SDS011;3876;42.204;24.686;2023-11-22T15:04:06;10.03;;;6.40;;
7667;SDS011;3876;42.204;24.686;2023-11-22T15:06:34;7.30;;;6.57;;